sensor_id;sensor_type;location;lat;lon;timestamp;P1;durP1;ratioP1;P2;durP2;ratioP2
39968;SDS011;25648;47.808;19.004;2022-12-10T00:01:16;9.52;;;6.95;;
39968;SDS011;25648;47.808;19.004;2022-12-10T00:03:43;10.65;;;7.93;;
39968;SDS011;25648;47.808;19.004;2022-12-10T00:06:12;10.48;;;7.43;;
39968;SDS011;25648;47.808;19.004;2022-12-10T00:08:39;8.75;;;6.45;;
39968;SDS011;25648;47.808;19.004;2022-12-10T00:11:05;8.93;;;6.82;;
39968;SDS011;25648;47.808;19.004;2022-12-10T00:13:32;9.68;;;7.00;;
39968;SDS011;25648;47.808;19.004;2022-12-10T00:16:00;9.15;;;6.65;;
39968;SDS011;25648;47.808;19.004;2022-12-10T00:18:26;10.80;;;7.85;;
39968;SDS011;25648;47.808;19.004;2022-12-10T00:20:51;9.88;;;7.13;;
39968;SDS011;25648;47.808;19.004;2022-12-10T00:23:18;8.02;;;6.10;;
39968;SDS011;25648;47.808;19.004;2022-12-10T00:25:43;10.85;;;8.00;;
39968;SDS011;25648;47.808;19.004;2022-12-10T00:28:09;11.18;;;8.20;;
39968;SDS011;25648;47.808;19.004;2022-12-10T00:30:35;14.15;;;11.07;;
39968;SDS011;25648;47.808;19.004;2022-12-10T00:33:01;10.73;;;7.75;;
39968;SDS011;25648;47.808;19.004;2022-12-10T00:35:26;8.10;;;6.10;;
39968;SDS011;25648;47.808;19.004;2022-12-10T00:37:52;9.48;;;7.03;;
39968;SDS011;25648;47.808;19.004;2022-12-10T00:40:18;10.15;;;7.82;;
39968;SDS011;25648;47.808;19.004;2022-12-10T00:42:43;9.32;;;6.85;;
39968;SDS011;25648;47.808;19.004;2022-12-10T00:45:09;10.82;;;7.88;;
39968;SDS011;25648;47.808;19.004;2022-12-10T00:47:35;10.05;;;7.07;;
39968;SDS011;25648;47.808;19.004;2022-12-10T00:50:00;9.73;;;7.13;;
39968;SDS011;25648;47.808;19.004;2022-12-10T00:52:26;10.25;;;7.63;;
39968;SDS011;25648;47.808;19.004;2022-12-10T00:54:52;8.95;;;7.25;;
39968;SDS011;25648;47.808;19.004;2022-12-10T00:57:17;11.40;;;7.05;;
39968;SDS011;25648;47.808;19.004;2022-12-10T00:59:43;10.52;;;7.88;;
39968;SDS011;25648;47.808;19.004;2022-12-10T01:02:08;12.23;;;8.23;;
39968;SDS011;25648;47.808;19.004;2022-12-10T01:04:34;14.43;;;9.38;;
39968;SDS011;25648;47.808;19.004;2022-12-10T01:07:00;12.35;;;9.18;;
39968;SDS011;25648;47.808;19.004;2022-12-10T01:09:27;9.80;;;7.70;;
39968;SDS011;25648;47.808;19.004;2022-12-10T01:11:54;11.48;;;7.93;;
39968;SDS011;25648;47.808;19.004;2022-12-10T01:14:25;11.52;;;8.25;;
39968;SDS011;25648;47.808;19.004;2022-12-10T01:16:54;11.02;;;7.65;;
39968;SDS011;25648;47.808;19.004;2022-12-10T01:19:21;9.93;;;7.70;;
39968;SDS011;25648;47.808;19.004;2022-12-10T01:21:51;11.80;;;8.02;;
39968;SDS011;25648;47.808;19.004;2022-12-10T01:24:18;12.27;;;8.50;;
39968;SDS011;25648;47.808;19.004;2022-12-10T01:26:48;10.10;;;7.85;;
39968;SDS011;25648;47.808;19.004;2022-12-10T01:29:14;11.85;;;8.07;;
39968;SDS011;25648;47.808;19.004;2022-12-10T01:31:41;12.15;;;7.60;;
39968;SDS011;25648;47.808;19.004;2022-12-10T01:34:08;9.07;;;6.85;;
39968;SDS011;25648;47.808;19.004;2022-12-10T01:36:37;13.82;;;9.63;;
39968;SDS011;25648;47.808;19.004;2022-12-10T01:39:05;12.27;;;8.68;;
39968;SDS011;25648;47.808;19.004;2022-12-10T01:46:34;11.13;;;8.20;;
39968;SDS011;25648;47.808;19.004;2022-12-10T01:49:04;12.35;;;8.18;;
39968;SDS011;25648;47.808;19.004;2022-12-10T01:51:32;11.80;;;7.93;;
39968;SDS011;25648;47.808;19.004;2022-12-10T01:54:01;9.68;;;7.05;;
39968;SDS011;25648;47.808;19.004;2022-12-10T01:56:28;12.43;;;8.63;;
39968;SDS011;25648;47.808;19.004;2022-12-10T01:58:56;11.40;;;8.27;;
39968;SDS011;25648;47.808;19.004;2022-12-10T02:06:42;9.27;;;6.90;;
39968;SDS011;25648;47.808;19.004;2022-12-10T02:17:19;16.77;;;10.32;;
39968;SDS011;25648;47.808;19.004;2022-12-10T02:25:32;14.23;;;9.50;;
39968;SDS011;25648;47.808;19.004;2022-12-10T02:28:10;20.92;;;11.35;;
39968;SDS011;25648;47.808;19.004;2022-12-10T02:30:55;18.93;;;11.63;;
39968;SDS011;25648;47.808;19.004;2022-12-10T02:33:22;22.38;;;12.77;;
39968;SDS011;25648;47.808;19.004;2022-12-10T02:35:51;18.02;;;11.32;;
39968;SDS011;25648;47.808;19.004;2022-12-10T02:38:31;20.25;;;11.98;;
39968;SDS011;25648;47.808;19.004;2022-12-10T02:41:05;22.20;;;12.55;;
39968;SDS011;25648;47.808;19.004;2022-12-10T02:43:38;24.67;;;12.98;;
39968;SDS011;25648;47.808;19.004;2022-12-10T02:46:05;27.77;;;14.23;;
39968;SDS011;25648;47.808;19.004;2022-12-10T02:48:32;26.50;;;14.07;;
39968;SDS011;25648;47.808;19.004;2022-12-10T02:50:58;23.02;;;13.60;;
39968;SDS011;25648;47.808;19.004;2022-12-10T02:53:24;29.63;;;14.77;;
39968;SDS011;25648;47.808;19.004;2022-12-10T02:58:28;34.53;;;16.15;;
39968;SDS011;25648;47.808;19.004;2022-12-10T03:01:18;29.92;;;14.50;;
39968;SDS011;25648;47.808;19.004;2022-12-10T03:04:13;23.02;;;13.07;;
39968;SDS011;25648;47.808;19.004;2022-12-10T03:06:55;26.77;;;13.32;;
39968;SDS011;25648;47.808;19.004;2022-12-10T03:09:46;24.48;;;13.23;;
39968;SDS011;25648;47.808;19.004;2022-12-10T03:12:18;32.53;;;14.43;;
39968;SDS011;25648;47.808;19.004;2022-12-10T03:14:50;24.73;;;13.05;;
39968;SDS011;25648;47.808;19.004;2022-12-10T03:17:17;27.33;;;13.93;;
39968;SDS011;25648;47.808;19.004;2022-12-10T03:19:45;30.17;;;14.05;;
39968;SDS011;25648;47.808;19.004;2022-12-10T03:22:14;35.63;;;14.85;;
39968;SDS011;25648;47.808;19.004;2022-12-10T03:24:49;31.13;;;13.93;;
39968;SDS011;25648;47.808;19.004;2022-12-10T03:27:17;36.83;;;15.60;;
39968;SDS011;25648;47.808;19.004;2022-12-10T03:29:46;29.05;;;13.85;;
39968;SDS011;25648;47.808;19.004;2022-12-10T03:32:14;31.33;;;13.85;;
39968;SDS011;25648;47.808;19.004;2022-12-10T03:34:43;36.13;;;15.43;;
39968;SDS011;25648;47.808;19.004;2022-12-10T03:37:09;35.15;;;14.38;;
39968;SDS011;25648;47.808;19.004;2022-12-10T03:39:36;34.08;;;15.68;;
39968;SDS011;25648;47.808;19.004;2022-12-10T03:42:04;27.63;;;13.48;;
39968;SDS011;25648;47.808;19.004;2022-12-10T03:44:30;33.67;;;15.43;;
39968;SDS011;25648;47.808;19.004;2022-12-10T03:46:58;30.48;;;13.90;;
39968;SDS011;25648;47.808;19.004;2022-12-10T03:49:25;27.23;;;14.10;;
39968;SDS011;25648;47.808;19.004;2022-12-10T03:51:51;33.10;;;14.00;;
39968;SDS011;25648;47.808;19.004;2022-12-10T03:54:17;31.02;;;14.60;;
39968;SDS011;25648;47.808;19.004;2022-12-10T03:56:43;33.25;;;14.60;;
39968;SDS011;25648;47.808;19.004;2022-12-10T03:59:08;25.25;;;13.02;;
39968;SDS011;25648;47.808;19.004;2022-12-10T04:01:34;25.27;;;12.13;;
39968;SDS011;25648;47.808;19.004;2022-12-10T04:04:00;29.00;;;12.65;;
39968;SDS011;25648;47.808;19.004;2022-12-10T04:06:26;22.77;;;11.80;;
39968;SDS011;25648;47.808;19.004;2022-12-10T04:08:52;22.08;;;10.82;;
39968;SDS011;25648;47.808;19.004;2022-12-10T04:11:18;21.17;;;11.38;;
39968;SDS011;25648;47.808;19.004;2022-12-10T04:13:44;18.73;;;10.60;;
39968;SDS011;25648;47.808;19.004;2022-12-10T04:16:29;25.10;;;11.85;;
39968;SDS011;25648;47.808;19.004;2022-12-10T04:18:58;22.75;;;11.40;;
39968;SDS011;25648;47.808;19.004;2022-12-10T04:21:38;25.83;;;12.35;;
39968;SDS011;25648;47.808;19.004;2022-12-10T04:24:24;26.25;;;12.10;;
39968;SDS011;25648;47.808;19.004;2022-12-10T04:27:13;29.73;;;12.88;;
39968;SDS011;25648;47.808;19.004;2022-12-10T04:29:44;26.83;;;13.00;;
39968;SDS011;25648;47.808;19.004;2022-12-10T04:32:10;26.58;;;12.77;;
39968;SDS011;25648;47.808;19.004;2022-12-10T04:34:36;24.20;;;11.75;;
39968;SDS011;25648;47.808;19.004;2022-12-10T04:37:02;25.63;;;12.10;;
39968;SDS011;25648;47.808;19.004;2022-12-10T04:39:28;24.40;;;12.38;;
39968;SDS011;25648;47.808;19.004;2022-12-10T04:41:54;29.38;;;13.77;;
39968;SDS011;25648;47.808;19.004;2022-12-10T04:44:20;26.88;;;13.77;;
39968;SDS011;25648;47.808;19.004;2022-12-10T04:46:46;25.75;;;13.63;;
39968;SDS011;25648;47.808;19.004;2022-12-10T04:49:12;30.90;;;15.70;;
39968;SDS011;25648;47.808;19.004;2022-12-10T04:51:38;29.98;;;15.55;;
39968;SDS011;25648;47.808;19.004;2022-12-10T04:54:04;36.92;;;17.65;;
39968;SDS011;25648;47.808;19.004;2022-12-10T04:56:30;32.42;;;17.20;;
39968;SDS011;25648;47.808;19.004;2022-12-10T04:58:56;38.80;;;19.38;;
39968;SDS011;25648;47.808;19.004;2022-12-10T05:01:22;34.53;;;18.17;;
39968;SDS011;25648;47.808;19.004;2022-12-10T05:03:48;44.15;;;24.95;;
39968;SDS011;25648;47.808;19.004;2022-12-10T05:06:15;30.45;;;17.10;;
39968;SDS011;25648;47.808;19.004;2022-12-10T05:08:42;31.38;;;16.55;;
39968;SDS011;25648;47.808;19.004;2022-12-10T05:11:12;37.83;;;22.90;;
39968;SDS011;25648;47.808;19.004;2022-12-10T05:13:40;33.15;;;19.23;;
39968;SDS011;25648;47.808;19.004;2022-12-10T05:16:07;30.88;;;17.75;;
39968;SDS011;25648;47.808;19.004;2022-12-10T05:18:34;35.33;;;18.08;;
39968;SDS011;25648;47.808;19.004;2022-12-10T05:21:02;31.73;;;17.92;;
39968;SDS011;25648;47.808;19.004;2022-12-10T05:23:35;30.73;;;18.25;;
39968;SDS011;25648;47.808;19.004;2022-12-10T05:26:06;28.10;;;17.20;;
39968;SDS011;25648;47.808;19.004;2022-12-10T05:28:37;39.92;;;21.52;;
39968;SDS011;25648;47.808;19.004;2022-12-10T05:31:11;41.55;;;22.23;;
39968;SDS011;25648;47.808;19.004;2022-12-10T05:33:38;33.55;;;18.65;;
39968;SDS011;25648;47.808;19.004;2022-12-10T05:36:04;31.25;;;19.05;;
39968;SDS011;25648;47.808;19.004;2022-12-10T05:38:31;33.45;;;19.50;;
39968;SDS011;25648;47.808;19.004;2022-12-10T05:41:04;39.63;;;23.30;;
39968;SDS011;25648;47.808;19.004;2022-12-10T05:43:37;42.13;;;25.23;;
39968;SDS011;25648;47.808;19.004;2022-12-10T05:46:03;33.13;;;19.23;;
39968;SDS011;25648;47.808;19.004;2022-12-10T05:48:35;29.50;;;18.27;;
39968;SDS011;25648;47.808;19.004;2022-12-10T05:51:04;33.63;;;18.52;;
39968;SDS011;25648;47.808;19.004;2022-12-10T05:53:31;30.60;;;17.80;;
39968;SDS011;25648;47.808;19.004;2022-12-10T05:56:00;36.97;;;20.83;;
39968;SDS011;25648;47.808;19.004;2022-12-10T05:58:37;33.53;;;19.55;;
39968;SDS011;25648;47.808;19.004;2022-12-10T06:01:08;38.38;;;21.77;;
39968;SDS011;25648;47.808;19.004;2022-12-10T06:03:41;31.67;;;19.20;;
39968;SDS011;25648;47.808;19.004;2022-12-10T06:06:07;33.15;;;18.98;;
39968;SDS011;25648;47.808;19.004;2022-12-10T06:08:34;28.30;;;17.60;;
39968;SDS011;25648;47.808;19.004;2022-12-10T06:11:01;35.90;;;19.23;;
39968;SDS011;25648;47.808;19.004;2022-12-10T06:13:27;32.95;;;18.70;;
39968;SDS011;25648;47.808;19.004;2022-12-10T06:15:53;34.10;;;18.70;;
39968;SDS011;25648;47.808;19.004;2022-12-10T06:18:45;37.58;;;21.95;;
39968;SDS011;25648;47.808;19.004;2022-12-10T06:21:12;36.45;;;20.13;;
39968;SDS011;25648;47.808;19.004;2022-12-10T06:23:39;38.47;;;20.35;;
39968;SDS011;25648;47.808;19.004;2022-12-10T06:26:10;35.53;;;21.42;;
39968;SDS011;25648;47.808;19.004;2022-12-10T06:28:37;34.72;;;19.85;;
39968;SDS011;25648;47.808;19.004;2022-12-10T06:31:03;36.40;;;21.10;;
39968;SDS011;25648;47.808;19.004;2022-12-10T06:33:29;39.25;;;22.13;;
39968;SDS011;25648;47.808;19.004;2022-12-10T06:35:55;37.50;;;22.55;;
39968;SDS011;25648;47.808;19.004;2022-12-10T06:38:21;70.88;;;34.63;;
39968;SDS011;25648;47.808;19.004;2022-12-10T06:40:46;44.13;;;25.15;;
39968;SDS011;25648;47.808;19.004;2022-12-10T06:43:12;38.95;;;22.80;;
39968;SDS011;25648;47.808;19.004;2022-12-10T06:45:40;44.38;;;24.83;;
39968;SDS011;25648;47.808;19.004;2022-12-10T06:48:07;79.72;;;40.53;;
39968;SDS011;25648;47.808;19.004;2022-12-10T06:50:33;36.65;;;22.80;;
39968;SDS011;25648;47.808;19.004;2022-12-10T06:53:00;41.22;;;24.67;;
39968;SDS011;25648;47.808;19.004;2022-12-10T06:55:26;39.40;;;24.10;;
39968;SDS011;25648;47.808;19.004;2022-12-10T06:57:54;37.42;;;23.13;;
39968;SDS011;25648;47.808;19.004;2022-12-10T07:00:20;38.60;;;23.90;;
39968;SDS011;25648;47.808;19.004;2022-12-10T07:02:47;38.78;;;24.17;;
39968;SDS011;25648;47.808;19.004;2022-12-10T07:05:13;36.28;;;23.05;;
39968;SDS011;25648;47.808;19.004;2022-12-10T07:07:39;39.25;;;23.85;;
39968;SDS011;25648;47.808;19.004;2022-12-10T07:10:04;39.67;;;24.42;;
39968;SDS011;25648;47.808;19.004;2022-12-10T07:12:31;35.60;;;23.63;;
39968;SDS011;25648;47.808;19.004;2022-12-10T07:14:57;38.35;;;24.48;;
39968;SDS011;25648;47.808;19.004;2022-12-10T07:17:22;38.22;;;25.52;;
39968;SDS011;25648;47.808;19.004;2022-12-10T07:19:48;36.95;;;23.75;;
39968;SDS011;25648;47.808;19.004;2022-12-10T07:22:14;36.17;;;24.10;;
39968;SDS011;25648;47.808;19.004;2022-12-10T07:24:39;43.40;;;26.20;;
39968;SDS011;25648;47.808;19.004;2022-12-10T07:27:06;43.13;;;26.15;;
39968;SDS011;25648;47.808;19.004;2022-12-10T07:29:32;44.95;;;26.95;;
39968;SDS011;25648;47.808;19.004;2022-12-10T07:31:58;42.92;;;26.13;;
39968;SDS011;25648;47.808;19.004;2022-12-10T07:34:23;41.00;;;25.63;;
39968;SDS011;25648;47.808;19.004;2022-12-10T07:36:49;41.53;;;27.20;;
39968;SDS011;25648;47.808;19.004;2022-12-10T07:39:15;41.05;;;25.33;;
39968;SDS011;25648;47.808;19.004;2022-12-10T07:41:46;51.08;;;31.70;;
39968;SDS011;25648;47.808;19.004;2022-12-10T07:44:12;47.60;;;28.40;;
39968;SDS011;25648;47.808;19.004;2022-12-10T07:46:38;45.90;;;27.35;;
39968;SDS011;25648;47.808;19.004;2022-12-10T07:49:04;44.65;;;27.40;;
39968;SDS011;25648;47.808;19.004;2022-12-10T07:51:30;57.22;;;34.20;;
39968;SDS011;25648;47.808;19.004;2022-12-10T07:53:56;41.13;;;26.77;;
39968;SDS011;25648;47.808;19.004;2022-12-10T07:56:22;42.22;;;26.88;;
39968;SDS011;25648;47.808;19.004;2022-12-10T07:58:49;41.38;;;25.75;;
39968;SDS011;25648;47.808;19.004;2022-12-10T08:01:16;41.60;;;26.45;;
39968;SDS011;25648;47.808;19.004;2022-12-10T08:03:45;38.63;;;25.33;;
39968;SDS011;25648;47.808;19.004;2022-12-10T08:06:14;40.70;;;26.10;;
39968;SDS011;25648;47.808;19.004;2022-12-10T08:08:42;43.22;;;26.58;;
39968;SDS011;25648;47.808;19.004;2022-12-10T08:11:09;45.60;;;28.70;;
39968;SDS011;25648;47.808;19.004;2022-12-10T08:13:35;50.90;;;33.05;;
39968;SDS011;25648;47.808;19.004;2022-12-10T08:16:06;51.35;;;32.22;;
39968;SDS011;25648;47.808;19.004;2022-12-10T08:18:35;44.75;;;28.10;;
39968;SDS011;25648;47.808;19.004;2022-12-10T08:21:11;44.78;;;28.13;;
39968;SDS011;25648;47.808;19.004;2022-12-10T08:23:39;42.10;;;26.45;;
39968;SDS011;25648;47.808;19.004;2022-12-10T08:26:06;43.92;;;27.77;;
39968;SDS011;25648;47.808;19.004;2022-12-10T08:28:33;41.42;;;26.33;;
39968;SDS011;25648;47.808;19.004;2022-12-10T08:30:59;42.40;;;26.67;;
39968;SDS011;25648;47.808;19.004;2022-12-10T08:33:25;41.58;;;27.27;;
39968;SDS011;25648;47.808;19.004;2022-12-10T08:35:51;39.45;;;25.98;;
39968;SDS011;25648;47.808;19.004;2022-12-10T08:38:17;38.53;;;25.65;;
39968;SDS011;25648;47.808;19.004;2022-12-10T08:40:43;45.03;;;31.17;;
39968;SDS011;25648;47.808;19.004;2022-12-10T08:43:09;44.63;;;28.60;;
39968;SDS011;25648;47.808;19.004;2022-12-10T08:45:35;41.92;;;25.70;;
39968;SDS011;25648;47.808;19.004;2022-12-10T08:48:01;38.85;;;24.25;;
39968;SDS011;25648;47.808;19.004;2022-12-10T08:50:27;33.95;;;23.25;;
39968;SDS011;25648;47.808;19.004;2022-12-10T08:52:53;35.15;;;23.17;;
39968;SDS011;25648;47.808;19.004;2022-12-10T08:55:21;27.88;;;19.27;;
39968;SDS011;25648;47.808;19.004;2022-12-10T08:57:47;26.60;;;19.27;;
39968;SDS011;25648;47.808;19.004;2022-12-10T09:00:13;25.63;;;18.58;;
39968;SDS011;25648;47.808;19.004;2022-12-10T09:02:39;26.75;;;18.30;;
39968;SDS011;25648;47.808;19.004;2022-12-10T09:05:05;27.70;;;18.42;;
39968;SDS011;25648;47.808;19.004;2022-12-10T09:07:32;29.60;;;19.52;;
39968;SDS011;25648;47.808;19.004;2022-12-10T09:09:58;31.60;;;20.98;;
39968;SDS011;25648;47.808;19.004;2022-12-10T09:12:24;29.23;;;18.67;;
39968;SDS011;25648;47.808;19.004;2022-12-10T09:14:49;32.42;;;23.08;;
39968;SDS011;25648;47.808;19.004;2022-12-10T09:17:15;31.50;;;21.25;;
39968;SDS011;25648;47.808;19.004;2022-12-10T09:19:41;31.33;;;20.05;;
39968;SDS011;25648;47.808;19.004;2022-12-10T09:22:07;29.42;;;19.83;;
39968;SDS011;25648;47.808;19.004;2022-12-10T09:24:33;32.53;;;20.58;;
39968;SDS011;25648;47.808;19.004;2022-12-10T09:26:59;28.38;;;18.88;;
39968;SDS011;25648;47.808;19.004;2022-12-10T09:29:26;29.25;;;18.25;;
39968;SDS011;25648;47.808;19.004;2022-12-10T09:31:52;35.30;;;22.70;;
39968;SDS011;25648;47.808;19.004;2022-12-10T09:34:18;32.65;;;20.77;;
39968;SDS011;25648;47.808;19.004;2022-12-10T09:36:44;33.50;;;21.52;;
39968;SDS011;25648;47.808;19.004;2022-12-10T09:39:10;35.35;;;22.50;;
39968;SDS011;25648;47.808;19.004;2022-12-10T09:41:48;33.10;;;20.48;;
39968;SDS011;25648;47.808;19.004;2022-12-10T09:47:42;34.75;;;22.55;;
39968;SDS011;25648;47.808;19.004;2022-12-10T09:50:13;35.30;;;22.02;;
39968;SDS011;25648;47.808;19.004;2022-12-10T09:52:45;29.13;;;17.90;;
39968;SDS011;25648;47.808;19.004;2022-12-10T09:55:20;33.55;;;20.00;;
39968;SDS011;25648;47.808;19.004;2022-12-10T09:58:00;34.15;;;21.60;;
39968;SDS011;25648;47.808;19.004;2022-12-10T10:02:55;36.60;;;20.35;;
39968;SDS011;25648;47.808;19.004;2022-12-10T10:05:30;33.50;;;21.40;;
39968;SDS011;25648;47.808;19.004;2022-12-10T10:07:58;43.45;;;25.77;;
39968;SDS011;25648;47.808;19.004;2022-12-10T10:10:33;37.22;;;22.92;;
39968;SDS011;25648;47.808;19.004;2022-12-10T10:15:34;38.92;;;23.35;;
39968;SDS011;25648;47.808;19.004;2022-12-10T10:18:08;35.05;;;20.35;;
39968;SDS011;25648;47.808;19.004;2022-12-10T10:20:42;43.22;;;23.88;;
39968;SDS011;25648;47.808;19.004;2022-12-10T10:23:08;39.47;;;23.70;;
39968;SDS011;25648;47.808;19.004;2022-12-10T10:25:38;40.80;;;25.13;;
39968;SDS011;25648;47.808;19.004;2022-12-10T10:28:04;40.25;;;24.27;;
39968;SDS011;25648;47.808;19.004;2022-12-10T10:30:30;37.22;;;22.60;;
39968;SDS011;25648;47.808;19.004;2022-12-10T10:32:56;40.20;;;24.77;;
39968;SDS011;25648;47.808;19.004;2022-12-10T10:35:31;38.83;;;25.05;;
39968;SDS011;25648;47.808;19.004;2022-12-10T10:38:00;38.05;;;24.33;;
39968;SDS011;25648;47.808;19.004;2022-12-10T10:40:31;38.47;;;24.27;;
39968;SDS011;25648;47.808;19.004;2022-12-10T10:43:04;39.83;;;24.75;;
39968;SDS011;25648;47.808;19.004;2022-12-10T10:45:31;49.70;;;27.85;;
39968;SDS011;25648;47.808;19.004;2022-12-10T10:50:38;40.08;;;24.67;;
39968;SDS011;25648;47.808;19.004;2022-12-10T10:53:25;37.03;;;23.05;;
39968;SDS011;25648;47.808;19.004;2022-12-10T10:55:53;42.05;;;24.95;;
39968;SDS011;25648;47.808;19.004;2022-12-10T10:58:22;38.35;;;24.88;;
39968;SDS011;25648;47.808;19.004;2022-12-10T11:00:57;65.93;;;56.17;;
39968;SDS011;25648;47.808;19.004;2022-12-10T11:03:25;40.00;;;24.40;;
39968;SDS011;25648;47.808;19.004;2022-12-10T11:05:54;41.90;;;26.95;;
39968;SDS011;25648;47.808;19.004;2022-12-10T11:08:24;39.63;;;25.15;;
39968;SDS011;25648;47.808;19.004;2022-12-10T11:13:31;39.17;;;23.98;;
39968;SDS011;25648;47.808;19.004;2022-12-10T11:16:00;47.08;;;28.50;;
39968;SDS011;25648;47.808;19.004;2022-12-10T11:18:37;42.75;;;26.83;;
39968;SDS011;25648;47.808;19.004;2022-12-10T11:23:48;67.63;;;38.10;;
39968;SDS011;25648;47.808;19.004;2022-12-10T11:26:30;155.48;;;71.18;;
39968;SDS011;25648;47.808;19.004;2022-12-10T11:29:10;46.47;;;28.48;;
39968;SDS011;25648;47.808;19.004;2022-12-10T11:39:56;39.92;;;24.75;;
39968;SDS011;25648;47.808;19.004;2022-12-10T11:42:55;42.80;;;25.60;;
39968;SDS011;25648;47.808;19.004;2022-12-10T11:50:59;40.28;;;26.08;;
39968;SDS011;25648;47.808;19.004;2022-12-10T11:59:27;48.05;;;26.88;;
39968;SDS011;25648;47.808;19.004;2022-12-10T12:05:03;47.03;;;27.50;;
39968;SDS011;25648;47.808;19.004;2022-12-10T12:12:57;43.25;;;25.45;;
39968;SDS011;25648;47.808;19.004;2022-12-10T12:15:43;44.17;;;27.55;;
39968;SDS011;25648;47.808;19.004;2022-12-10T12:21:13;49.65;;;27.90;;
39968;SDS011;25648;47.808;19.004;2022-12-10T12:23:49;43.75;;;26.92;;
39968;SDS011;25648;47.808;19.004;2022-12-10T12:26:32;48.03;;;26.83;;
39968;SDS011;25648;47.808;19.004;2022-12-10T12:31:41;42.92;;;25.38;;
39968;SDS011;25648;47.808;19.004;2022-12-10T12:37:04;46.85;;;28.10;;
39968;SDS011;25648;47.808;19.004;2022-12-10T12:39:35;51.53;;;27.85;;
39968;SDS011;25648;47.808;19.004;2022-12-10T12:44:59;42.35;;;25.17;;
39968;SDS011;25648;47.808;19.004;2022-12-10T12:49:59;50.63;;;29.55;;
39968;SDS011;25648;47.808;19.004;2022-12-10T12:55:04;48.90;;;30.33;;
39968;SDS011;25648;47.808;19.004;2022-12-10T12:57:45;75.90;;;40.78;;
39968;SDS011;25648;47.808;19.004;2022-12-10T13:00:16;52.33;;;29.67;;
39968;SDS011;25648;47.808;19.004;2022-12-10T13:02:55;51.08;;;29.77;;
39968;SDS011;25648;47.808;19.004;2022-12-10T13:05:42;49.80;;;28.63;;
39968;SDS011;25648;47.808;19.004;2022-12-10T13:10:51;56.90;;;31.85;;
39968;SDS011;25648;47.808;19.004;2022-12-10T13:13:23;53.97;;;31.95;;
39968;SDS011;25648;47.808;19.004;2022-12-10T13:15:52;53.22;;;31.15;;
39968;SDS011;25648;47.808;19.004;2022-12-10T13:18:19;65.22;;;34.28;;
39968;SDS011;25648;47.808;19.004;2022-12-10T13:23:51;71.85;;;36.05;;
39968;SDS011;25648;47.808;19.004;2022-12-10T13:26:27;60.90;;;34.08;;
39968;SDS011;25648;47.808;19.004;2022-12-10T13:28:55;49.35;;;29.90;;
39968;SDS011;25648;47.808;19.004;2022-12-10T13:31:37;52.50;;;30.20;;
39968;SDS011;25648;47.808;19.004;2022-12-10T13:34:05;57.35;;;31.70;;
39968;SDS011;25648;47.808;19.004;2022-12-10T13:44:56;52.78;;;28.58;;
39968;SDS011;25648;47.808;19.004;2022-12-10T13:47:46;46.60;;;26.95;;
39968;SDS011;25648;47.808;19.004;2022-12-10T13:50:21;49.22;;;28.88;;
39968;SDS011;25648;47.808;19.004;2022-12-10T14:06:42;45.08;;;26.42;;
39968;SDS011;25648;47.808;19.004;2022-12-10T14:11:49;52.92;;;28.85;;
39968;SDS011;25648;47.808;19.004;2022-12-10T14:14:21;55.42;;;30.20;;
39968;SDS011;25648;47.808;19.004;2022-12-10T14:16:56;90.57;;;54.03;;
39968;SDS011;25648;47.808;19.004;2022-12-10T14:19:26;56.70;;;31.17;;
39968;SDS011;25648;47.808;19.004;2022-12-10T14:21:53;50.90;;;28.60;;
39968;SDS011;25648;47.808;19.004;2022-12-10T14:24:28;49.58;;;28.08;;
39968;SDS011;25648;47.808;19.004;2022-12-10T14:26:57;59.95;;;30.23;;
39968;SDS011;25648;47.808;19.004;2022-12-10T14:29:28;58.20;;;31.45;;
39968;SDS011;25648;47.808;19.004;2022-12-10T14:31:54;64.05;;;32.15;;
39968;SDS011;25648;47.808;19.004;2022-12-10T14:34:25;61.13;;;31.88;;
39968;SDS011;25648;47.808;19.004;2022-12-10T14:36:54;53.92;;;30.05;;
39968;SDS011;25648;47.808;19.004;2022-12-10T14:39:22;57.42;;;34.15;;
39968;SDS011;25648;47.808;19.004;2022-12-10T14:41:52;51.60;;;28.30;;
39968;SDS011;25648;47.808;19.004;2022-12-10T14:44:20;45.63;;;27.42;;
39968;SDS011;25648;47.808;19.004;2022-12-10T14:46:47;53.47;;;27.77;;
39968;SDS011;25648;47.808;19.004;2022-12-10T14:49:16;44.83;;;25.42;;
39968;SDS011;25648;47.808;19.004;2022-12-10T14:51:46;51.08;;;27.80;;
39968;SDS011;25648;47.808;19.004;2022-12-10T14:54:25;48.78;;;28.58;;
39968;SDS011;25648;47.808;19.004;2022-12-10T14:56:53;55.88;;;32.08;;
39968;SDS011;25648;47.808;19.004;2022-12-10T14:59:21;61.92;;;33.38;;
39968;SDS011;25648;47.808;19.004;2022-12-10T15:01:56;66.40;;;33.38;;
39968;SDS011;25648;47.808;19.004;2022-12-10T15:04:26;47.05;;;27.40;;
39968;SDS011;25648;47.808;19.004;2022-12-10T15:07:05;51.73;;;28.57;;
39968;SDS011;25648;47.808;19.004;2022-12-10T15:09:32;46.80;;;26.02;;
39968;SDS011;25648;47.808;19.004;2022-12-10T15:11:59;46.67;;;25.35;;
39968;SDS011;25648;47.808;19.004;2022-12-10T15:14:26;43.05;;;25.45;;
39968;SDS011;25648;47.808;19.004;2022-12-10T15:16:53;43.00;;;23.35;;
39968;SDS011;25648;47.808;19.004;2022-12-10T15:21:59;40.97;;;23.50;;
39968;SDS011;25648;47.808;19.004;2022-12-10T15:24:28;40.45;;;22.83;;
39968;SDS011;25648;47.808;19.004;2022-12-10T15:26:59;41.17;;;23.25;;
39968;SDS011;25648;47.808;19.004;2022-12-10T15:32:04;44.40;;;25.95;;
39968;SDS011;25648;47.808;19.004;2022-12-10T15:34:34;46.10;;;25.38;;
39968;SDS011;25648;47.808;19.004;2022-12-10T15:37:05;46.60;;;25.42;;
39968;SDS011;25648;47.808;19.004;2022-12-10T15:39:43;37.47;;;21.90;;
39968;SDS011;25648;47.808;19.004;2022-12-10T15:42:25;53.47;;;30.65;;
39968;SDS011;25648;47.808;19.004;2022-12-10T15:44:56;48.33;;;29.77;;
39968;SDS011;25648;47.808;19.004;2022-12-10T15:47:26;256.63;;;99.88;;
39968;SDS011;25648;47.808;19.004;2022-12-10T15:49:53;57.00;;;30.00;;
39968;SDS011;25648;47.808;19.004;2022-12-10T15:52:21;46.35;;;28.40;;
39968;SDS011;25648;47.808;19.004;2022-12-10T15:54:52;43.33;;;25.52;;
39968;SDS011;25648;47.808;19.004;2022-12-10T15:57:21;45.55;;;26.35;;
39968;SDS011;25648;47.808;19.004;2022-12-10T15:59:55;51.58;;;27.27;;
39968;SDS011;25648;47.808;19.004;2022-12-10T16:05:21;38.50;;;23.05;;
39968;SDS011;25648;47.808;19.004;2022-12-10T16:07:48;38.72;;;21.88;;
39968;SDS011;25648;47.808;19.004;2022-12-10T16:10:16;39.45;;;21.55;;
39968;SDS011;25648;47.808;19.004;2022-12-10T16:13:00;37.35;;;22.52;;
39968;SDS011;25648;47.808;19.004;2022-12-10T16:15:35;38.30;;;22.65;;
39968;SDS011;25648;47.808;19.004;2022-12-10T16:18:09;37.00;;;21.95;;
39968;SDS011;25648;47.808;19.004;2022-12-10T16:20:35;33.78;;;19.13;;
39968;SDS011;25648;47.808;19.004;2022-12-10T16:23:02;35.85;;;20.58;;
39968;SDS011;25648;47.808;19.004;2022-12-10T16:25:29;38.67;;;22.77;;
39968;SDS011;25648;47.808;19.004;2022-12-10T16:27:56;37.33;;;22.15;;
39968;SDS011;25648;47.808;19.004;2022-12-10T16:33:02;34.13;;;19.83;;